Time;durP1;ratioP1;P1;durP2;ratioP2;P2;SDS_P1;SDS_P2;PMS_P1;PMS_P2;Temp;Humidity;BMP_temperature;BMP_pressure;BME280_temperature;BME280_humidity;BME280_pressure;Samples;Min_cycle;Max_cycle;Signal;HPM_P1;HPM_P2
2022/07/30 00:01:42;;;;;;;8.88;6.10;;;;;;;21.77;55.98;99724.05;1720803;83;20941;-46
2022/07/30 00:04:10;;;;;;;9.98;6.30;;;;;;;21.74;56.06;99729.03;1720729;83;20988;-46
2022/07/30 00:06:38;;;;;;;7.97;6.00;;;;;;;21.71;56.14;99729.89;1720824;83;20984;-46
2022/07/30 00:09:06;;;;;;;7.12;5.67;;;;;;;21.71;56.18;99727.73;1720938;83;21048;-46
2022/07/30 00:11:34;;;;;;;13.45;6.42;;;;;;;21.68;56.34;99721.09;1715483;83;20933;-46
2022/07/30 00:14:03;;;;;;;16.65;6.62;;;;;;;21.64;56.54;99728.05;1715433;83;20984;-46
2022/07/30 00:16:32;;;;;;;8.80;6.10;;;;;;;21.62;56.83;99726.33;1715825;83;21195;-46
2022/07/30 00:19:01;;;;;;;11.97;5.90;;;;;;;21.59;57.01;99724.40;1715620;83;21024;-46
2022/07/30 00:21:28;;;;;;;10.88;5.45;;;;;;;21.56;57.24;99727.23;1751646;82;21069;-46
2022/07/30 00:23:57;;;;;;;10.15;5.40;;;;;;;21.53;57.33;99719.81;1751507;82;21132;-46
2022/07/30 00:26:25;;;;;;;8.13;5.33;;;;;;;21.51;57.15;99724.38;1751338;82;21068;-46
2022/07/30 00:28:52;;;;;;;9.05;5.50;;;;;;;21.50;57.27;99717.89;1751470;82;21370;-46
2022/07/30 00:31:20;;;;;;;8.60;5.70;;;;;;;21.22;57.41;99681.99;1751447;81;21009;-46
2022/07/30 00:33:49;;;;;;;9.60;5.45;;;;;;;21.46;57.45;99722.70;1751478;82;21096;-46
2022/07/30 00:36:18;;;;;;;8.63;5.22;;;;;;;21.43;57.51;99719.42;1715312;83;20933;-46
2022/07/30 00:38:45;;;;;;;8.13;5.35;;;;;;;21.41;57.50;99717.67;1715161;83;20933;-45
2022/07/30 00:41:13;;;;;;;11.00;4.80;;;;;;;21.38;57.33;99722.67;1751559;82;20997;-46
2022/07/30 00:43:40;;;;;;;6.53;4.92;;;;;;;21.36;57.18;99718.17;1751484;82;21025;-46
2022/07/30 00:46:07;;;;;;;7.45;4.72;;;;;;;21.35;57.21;99716.64;1715455;83;21009;-46
2022/07/30 00:48:35;;;;;;;10.60;5.28;;;;;;;21.32;57.20;99716.09;1751326;81;23175;-46
2022/07/30 00:51:02;;;;;;;6.83;4.70;;;;;;;21.31;57.11;99715.90;1715453;83;21600;-46
2022/07/30 00:53:31;;;;;;;7.85;5.12;;;;;;;21.29;57.08;99710.83;1751408;81;20977;-46
2022/07/30 00:55:58;;;;;;;7.58;4.97;;;;;;;21.28;57.11;99718.14;1751508;82;21100;-46
2022/07/30 00:58:27;;;;;;;9.03;4.78;;;;;;;21.25;57.08;99710.13;1715529;83;21542;-46
2022/07/30 01:00:55;;;;;;;6.95;4.80;;;;;;;21.25;57.15;99707.36;1715405;83;20989;-46
2022/07/30 01:03:25;;;;;;;9.50;5.03;;;;;;;21.21;57.11;99704.66;1751465;81;21577;-46
2022/07/30 01:05:52;;;;;;;8.98;4.50;;;;;;;21.20;57.00;99708.60;1715429;83;22066;-46
2022/07/30 01:08:19;;;;;;;5.08;4.53;;;;;;;21.18;56.92;99700.59;1715111;83;21598;-46
2022/07/30 01:10:47;;;;;;;7.45;4.42;;;;;;;21.15;56.93;99700.06;1710860;83;21084;-46
2022/07/30 01:13:14;;;;;;;7.12;4.55;;;;;;;21.11;56.98;99693.19;1743695;82;22257;-46
2022/07/30 01:15:43;;;;;;;6.40;4.97;;;;;;;21.04;57.03;99687.05;1743602;82;20970;-46
2022/07/30 01:18:10;;;;;;;8.33;4.65;;;;;;;21.06;56.98;99686.78;1743747;81;20987;-46
2022/07/30 01:20:59;;;;;;;8.17;4.60;;;;;;;21.05;56.96;99688.61;1743801;81;20942;-46
2022/07/30 01:23:37;;;;;;;6.62;4.65;;;;;;;21.02;56.95;99688.83;1707650;83;20890;-46
2022/07/30 01:26:08;;;;;;;6.17;4.30;;;;;;;20.98;57.07;99688.72;1733440;82;21037;-46
2022/07/30 01:28:39;;;;;;;6.10;4.65;;;;;;;20.94;57.13;99688.80;1707801;84;21016;-46
2022/07/30 01:31:07;;;;;;;7.15;4.83;;;;;;;20.93;57.31;99687.83;1687540;84;21024;-46
2022/07/30 01:33:38;;;;;;;7.70;4.35;;;;;;;20.90;57.21;99682.57;1707674;84;21088;-46
2022/07/30 01:36:05;;;;;;;;;;;;;;;20.90;57.26;99681.19;1710652;84;21040;-46
2022/07/30 01:38:33;;;;;;;4.95;3.95;;;;;;;20.90;57.14;99679.81;1694297;84;21911;-46
2022/07/30 01:41:02;;;;;;;8.33;4.35;;;;;;;20.79;57.44;99677.84;1675440;84;21493;-46
2022/07/30 01:43:31;;;;;;;8.80;4.00;;;;;;;20.78;57.51;99681.19;1707890;84;21611;-46
2022/07/30 01:45:59;;;;;;;8.23;4.37;;;;;;;20.79;57.50;99681.37;1707490;84;21054;-46
2022/07/30 01:48:27;;;;;;;7.47;4.28;;;;;;;20.79;57.60;99692.40;1707415;84;21547;-46
2022/07/30 01:50:57;;;;;;;8.65;4.78;;;;;;;20.78;57.42;99680.41;1707371;84;21255;-46
2022/07/30 01:53:26;;;;;;;6.50;4.22;;;;;;;20.77;57.28;99685.14;1707288;84;20938;-46
2022/07/30 01:55:55;;;;;;;6.87;4.37;;;;;;;20.77;57.33;99687.11;1707366;84;21529;-46
2022/07/30 01:58:26;;;;;;;7.22;4.03;;;;;;;20.75;57.50;99688.14;1707313;84;21042;-46
2022/07/30 02:00:56;;;;;;;7.53;4.20;;;;;;;20.76;57.31;99691.09;1679525;84;21619;-46
2022/07/30 02:03:25;;;;;;;7.45;3.92;;;;;;;20.76;57.59;99690.49;1707619;84;21143;-46
2022/07/30 02:05:59;;;;;;;7.28;4.00;;;;;;;20.77;57.56;99687.11;1707581;84;21508;-46
2022/07/30 02:08:42;;;;;;;7.30;4.20;;;;;;;20.76;57.42;99680.06;1707455;84;21014;-46
2022/07/30 02:11:15;;;;;;;6.42;4.05;;;;;;;20.76;57.60;99693.25;1699677;83;21087;-46
2022/07/30 02:13:49;;;;;;;4.45;3.80;;;;;;;20.74;57.42;99685.20;1707648;84;21018;-46
2022/07/30 02:16:24;;;;;;;6.55;3.87;;;;;;;20.74;57.53;99688.74;1707567;84;21121;-46
2022/07/30 02:19:05;;;;;;;5.65;3.75;;;;;;;20.75;57.60;99689.52;1707347;83;21109;-46
2022/07/30 02:21:37;;;;;;;7.85;3.92;;;;;;;20.74;57.77;99685.20;1706615;84;21345;-46
2022/07/30 02:24:09;;;;;;;10.80;4.20;;;;;;;20.73;57.51;99689.94;1700386;84;21040;-46
2022/07/30 02:26:37;;;;;;;8.23;3.77;;;;;;;20.72;57.21;99681.48;1700353;84;21088;-46
2022/07/30 02:29:04;;;;;;;7.95;3.90;;;;;;;20.72;57.02;99684.86;1700386;84;21215;-46
2022/07/30 02:31:32;;;;;;;6.92;4.05;;;;;;;20.73;56.88;99680.89;1700528;84;21052;-46
2022/07/30 02:34:03;;;;;;;9.93;4.28;;;;;;;20.73;56.75;99684.42;1700641;84;21036;-46
2022/07/30 02:36:32;;;;;;;6.00;3.95;;;;;;;20.72;56.67;99690.38;1700538;84;21016;-46
2022/07/30 02:39:00;;;;;;;4.97;3.50;;;;;;;20.71;56.55;99687.44;1700862;84;21499;-46
2022/07/30 02:41:28;;;;;;;7.37;3.92;;;;;;;20.71;56.46;99687.44;1700682;84;21142;-46
2022/07/30 02:43:55;;;;;;;5.33;3.85;;;;;;;20.70;56.40;99690.00;1700667;84;21020;-46
2022/07/30 02:46:24;;;;;;;5.15;3.77;;;;;;;20.70;56.38;99690.00;1700560;84;21044;-46
2022/07/30 02:49:09;;;;;;;6.25;3.75;;;;;;;20.71;56.35;99693.73;1700658;84;21511;-46
2022/07/30 02:51:39;;;;;;;8.10;3.70;;;;;;;20.70;56.33;99692.16;1671483;84;21116;-46
2022/07/30 02:54:06;;;;;;;5.72;3.92;;;;;;;20.70;56.37;99688.03;1700583;84;21148;-46
2022/07/30 02:56:34;;;;;;;6.40;3.58;;;;;;;20.72;56.30;99686.24;1700396;84;21155;-46
2022/07/30 02:59:01;;;;;;;9.28;3.98;;;;;;;20.73;56.32;99687.18;1700441;84;21036;-46
2022/07/30 03:01:28;;;;;;;6.17;3.42;;;;;;;20.74;56.26;99682.45;1700477;84;21052;-46
2022/07/30 03:03:55;;;;;;;4.83;3.27;;;;;;;20.75;56.24;99686.77;1700555;84;21045;-46
2022/07/30 03:06:24;;;;;;;6.37;3.60;;;;;;;20.77;56.32;99685.73;1700407;84;21215;-46
2022/07/30 03:08:53;;;;;;;6.15;3.58;;;;;;;20.78;56.32;99688.67;1694958;84;20993;-46
2022/07/30 03:11:20;;;;;;;9.75;3.95;;;;;;;20.80;56.50;99689.05;1700300;83;21055;-46
2022/07/30 03:13:47;;;;;;;4.45;3.58;;;;;;;20.81;56.49;99691.39;1700422;84;21004;-46
2022/07/30 03:16:15;;;;;;;5.00;3.50;;;;;;;20.82;56.70;99697.05;1700391;84;21112;-46
2022/07/30 03:18:42;;;;;;;6.15;3.42;;;;;;;20.83;56.92;99698.63;1672816;84;21223;-46
2022/07/30 03:21:10;;;;;;;6.45;3.60;;;;;;;20.85;57.04;99699.59;1700215;84;21484;-46
2022/07/30 03:23:39;;;;;;;6.85;3.92;;;;;;;20.85;57.41;99699.59;1700438;84;20988;-46
2022/07/30 03:26:07;;;;;;;5.37;3.50;;;;;;;20.87;56.94;99701.30;1700199;84;20997;-46
2022/07/30 03:28:38;;;;;;;5.58;3.60;;;;;;;20.89;56.77;99707.19;1700388;84;21048;-45
2022/07/30 03:31:06;;;;;;;5.20;3.27;;;;;;;20.92;56.50;99708.31;1700401;84;22111;-46
2022/07/30 03:33:35;;;;;;;8.18;4.12;;;;;;;20.93;56.54;99707.91;1700293;84;20961;-46
2022/07/30 03:36:03;;;;;;;6.40;3.95;;;;;;;20.96;56.59;99707.67;1672882;84;21052;-46
2022/07/30 03:38:30;;;;;;;3.98;3.50;;;;;;;20.99;56.65;99702.69;1707290;84;20988;-46
2022/07/30 03:40:59;;;;;;;7.95;3.95;;;;;;;20.99;56.55;99704.84;1691154;84;21012;-45
2022/07/30 03:43:27;;;;;;;4.15;3.40;;;;;;;21.01;56.40;99701.05;1742818;82;21483;-46
2022/07/30 03:45:55;;;;;;;5.50;3.17;;;;;;;21.05;56.23;99697.66;1742956;82;21020;-46
2022/07/30 03:48:24;;;;;;;8.15;3.40;;;;;;;21.08;56.08;99705.07;1743113;82;20942;-46
2022/07/30 03:50:52;;;;;;;7.15;3.42;;;;;;;21.11;56.20;99706.19;1743024;82;20965;-46
2022/07/30 03:53:22;;;;;;;7.08;3.17;;;;;;;21.12;56.37;99703.63;1743081;82;21054;-46
2022/07/30 03:56:08;;;;;;;5.10;3.25;;;;;;;21.14;56.21;99702.05;1712205;83;21146;-46
2022/07/30 03:58:39;;;;;;;4.03;3.17;;;;;;;21.16;56.02;99703.77;1709443;83;21134;-46
2022/07/30 04:01:07;;;;;;;5.47;3.50;;;;;;;21.20;56.14;99700.95;1723784;82;21031;-46
2022/07/30 04:03:35;;;;;;;5.70;3.35;;;;;;;21.22;56.12;99702.08;1736981;82;21033;-46
2022/07/30 04:06:04;;;;;;;7.50;3.70;;;;;;;21.26;55.92;99692.35;1743087;82;21073;-46
2022/07/30 04:08:31;;;;;;;4.62;3.12;;;;;;;21.29;55.92;99700.39;1742924;82;23108;-46
2022/07/30 04:10:58;;;;;;;6.45;3.42;;;;;;;21.34;55.94;99697.14;1744633;82;21012;-46
2022/07/30 04:13:33;;;;;;;4.35;3.10;;;;;;;21.37;55.94;99701.80;1749273;82;21020;-46
2022/07/30 04:16:12;;;;;;;7.42;3.50;;;;;;;21.40;55.87;99701.73;1749462;81;20981;-46
2022/07/30 04:18:45;;;;;;;5.08;3.33;;;;;;;21.45;55.38;99697.69;1749378;81;21045;-46
2022/07/30 04:21:14;;;;;;;6.40;3.45;;;;;;;21.50;55.25;99695.82;1749119;81;21579;-46
2022/07/30 04:23:42;;;;;;;7.45;3.30;;;;;;;21.52;55.19;99693.42;1749049;82;20977;-46
2022/07/30 04:26:09;;;;;;;6.70;3.55;;;;;;;21.55;55.25;99692.56;1749167;82;21008;-46
2022/07/30 04:28:38;;;;;;;4.62;3.15;;;;;;;21.58;54.86;99697.25;1749106;82;21044;-46
2022/07/30 04:31:05;;;;;;;6.22;3.35;;;;;;;21.61;54.85;99699.15;1749285;82;21029;-46
2022/07/30 04:33:34;;;;;;;6.85;3.22;;;;;;;21.63;54.62;99700.89;1749192;81;20922;-46
2022/07/30 04:36:12;;;;;;;5.22;3.45;;;;;;;21.63;54.95;99695.38;1723849;82;21509;-46
2022/07/30 04:38:40;;;;;;;5.10;3.10;;;;;;;21.64;54.75;99693.55;1749258;82;20969;-46
2022/07/30 04:41:07;;;;;;;5.60;3.10;;;;;;;21.68;54.85;99687.98;1749448;82;21602;-46
2022/07/30 04:43:38;;;;;;;6.50;3.47;;;;;;;21.69;54.85;99690.29;1745300;82;20993;-46
2022/07/30 04:46:05;;;;;;;4.83;3.33;;;;;;;21.73;55.02;99690.84;1749333;81;21156;-46
2022/07/30 04:48:32;;;;;;;4.85;3.35;;;;;;;21.77;54.69;99687.39;1749027;82;20991;-46
2022/07/30 04:51:12;;;;;;;5.72;2.92;;;;;;;21.80;54.39;99688.69;1748789;82;21073;-46
2022/07/30 04:53:40;;;;;;;9.43;3.08;;;;;;;21.86;53.91;99684.83;1749140;82;20985;-46
2022/07/30 04:56:07;;;;;;;4.28;2.85;;;;;;;21.91;53.50;99691.23;1749329;82;21084;-46
2022/07/30 04:58:36;;;;;;;8.33;3.20;;;;;;;21.93;53.29;99686.06;1749246;81;20957;-46
2022/07/30 05:01:04;;;;;;;6.72;2.95;;;;;;;21.98;53.42;99686.94;1749175;82;20933;-45
2022/07/30 05:03:31;;;;;;;6.53;2.95;;;;;;;22.05;53.00;99689.56;1749127;82;21078;-46
2022/07/30 05:05:58;;;;;;;5.78;2.67;;;;;;;22.10;52.54;99684.31;1749196;82;21022;-46
2022/07/30 05:08:27;;;;;;;6.47;2.98;;;;;;;22.19;52.53;99687.85;1749192;81;21017;-46
2022/07/30 05:10:54;;;;;;;6.90;2.65;;;;;;;22.27;52.34;99691.99;1749188;82;21073;-46
2022/07/30 05:13:22;;;;;;;7.17;2.95;;;;;;;22.37;51.27;99695.71;1748400;82;21053;-46
2022/07/30 05:15:49;;;;;;;2.85;2.40;;;;;;;22.42;51.25;99695.98;1748707;82;20993;-46
2022/07/30 05:18:19;;;;;;;3.65;2.50;;;;;;;22.48;51.13;99694.86;1748563;82;20953;-46
2022/07/30 05:20:47;;;;;;;5.12;2.62;;;;;;;22.56;51.18;99691.34;1748598;82;21025;-45
2022/07/30 05:23:22;;;;;;;5.33;2.77;;;;;;;22.58;50.16;99692.45;1743023;82;21133;-46
2022/07/30 05:26:09;;;;;;;5.25;2.40;;;;;;;22.59;50.44;99691.24;1748558;82;21495;-46
2022/07/30 05:28:39;;;;;;;4.03;2.50;;;;;;;22.62;50.64;99699.26;1748172;82;20974;-46
2022/07/30 05:31:08;;;;;;;6.05;2.60;;;;;;;22.68;49.84;99692.78;1748447;82;21002;-46
2022/07/30 05:33:35;;;;;;;7.47;2.60;;;;;;;22.71;49.51;99697.47;1748737;82;21057;-46
2022/07/30 05:36:04;;;;;;;6.03;2.67;;;;;;;22.71;49.56;99700.23;1748530;82;21213;-46
2022/07/30 05:38:34;;;;;;;3.85;2.55;;;;;;;22.71;49.58;99698.85;1721315;82;28155;-46
2022/07/30 05:41:09;;;;;;;3.75;2.52;;;;;;;22.74;49.85;99702.15;1743310;82;21024;-45
2022/07/30 05:43:50;;;;;;;7.17;2.75;;;;;;;22.76;49.50;99701.09;1748582;82;21025;-46
2022/07/30 05:46:17;;;;;;;6.60;2.62;;;;;;;22.79;49.48;99706.38;1748372;82;21010;-46
2022/07/30 05:48:44;;;;;;;4.12;2.65;;;;;;;22.81;48.88;99701.17;1721001;82;21222;-46
2022/07/30 05:51:11;;;;;;;4.87;2.62;;;;;;;22.84;49.31;99695.58;1748679;82;21540;-46
2022/07/30 05:53:42;;;;;;;3.72;2.58;;;;;;;22.86;49.28;99701.43;1748285;82;21480;-46
2022/07/30 05:56:20;;;;;;;7.03;2.87;;;;;;;22.91;48.60;99698.74;1738801;82;21050;-46
2022/07/30 05:58:53;;;;;;;9.60;2.60;;;;;;;22.95;48.90;99702.97;1748227;82;21004;-46
2022/07/30 06:01:22;;;;;;;4.97;2.42;;;;;;;22.98;48.29;99697.19;1747171;82;21320;-46
2022/07/30 06:03:49;;;;;;;4.45;2.85;;;;;;;23.03;48.32;99705.56;1748568;82;20959;-46
2022/07/30 06:06:38;;;;;;;3.55;2.62;;;;;;;23.08;48.55;99699.50;1738812;82;20922;-46
2022/07/30 06:09:06;;;;;;;5.67;2.27;;;;;;;23.13;48.67;99697.59;1748675;82;21032;-46
2022/07/30 06:11:35;;;;;;;4.33;2.50;;;;;;;23.19;48.56;99697.98;1747574;81;21063;-46
2022/07/30 06:14:02;;;;;;;5.12;2.67;;;;;;;23.26;48.59;99695.64;1748457;81;21227;-46
2022/07/30 06:16:31;;;;;;;7.28;2.52;;;;;;;23.33;48.58;99689.93;1749258;81;21081;-46
2022/07/30 06:19:02;;;;;;;6.80;2.30;;;;;;;23.44;47.51;99706.20;1749104;82;21499;-45
2022/07/30 06:21:37;;;;;;;6.05;2.25;;;;;;;23.51;47.56;99697.14;1748493;82;21583;-46
2022/07/30 06:26:53;;;;;;;4.97;2.30;;;;;;;23.75;46.92;99682.41;1845494;76;22545;-46
2022/07/30 06:29:21;;;;;;;4.40;2.50;;;;;;;23.73;47.29;99685.61;1814738;79;20982;-46
2022/07/30 06:31:50;;;;;;;2.35;1.92;;;;;;;23.85;47.46;99688.25;1814830;79;21282;-46
2022/07/30 06:34:17;;;;;;;7.05;2.40;;;;;;;23.97;46.27;99691.62;1814744;79;20982;-46
2022/07/30 06:36:44;;;;;;;4.70;2.10;;;;;;;24.07;46.33;99693.29;1814726;79;20958;-46
2022/07/30 06:39:14;;;;;;;5.45;2.35;;;;;;;24.19;45.63;99693.17;1813948;79;21492;-46
2022/07/30 06:41:44;;;;;;;2.85;2.10;;;;;;;24.30;45.86;99692.23;1798190;79;20931;-46
2022/07/30 06:44:13;;;;;;;3.40;2.20;;;;;;;24.39;44.73;99690.95;1814904;79;21135;-46
2022/07/30 06:46:59;;;;;;;4.42;2.15;;;;;;;24.47;44.98;99697.80;1814639;79;20915;-46
2022/07/30 06:49:26;;;;;;;3.33;2.05;;;;;;;24.55;44.58;99690.80;1814683;79;20927;-46
2022/07/30 06:51:53;;;;;;;3.47;2.08;;;;;;;24.63;44.79;99683.81;1814532;79;21069;-46
2022/07/30 06:54:21;;;;;;;5.15;2.22;;;;;;;24.76;45.32;99686.55;1814763;79;20911;-46
2022/07/30 06:57:04;;;;;;;3.20;2.20;;;;;;;24.90;45.10;99681.16;1814920;79;20958;-46
2022/07/30 06:59:31;;;;;;;3.55;1.90;;;;;;;25.03;44.53;99688.81;1814643;79;20933;-46
2022/07/30 07:02:04;;;;;;;2.47;2.27;;;;;;;25.16;43.60;99684.62;1813901;79;20918;-46
2022/07/30 07:04:35;;;;;;;3.77;2.22;;;;;;;25.26;42.98;99688.41;1814613;79;20966;-46
2022/07/30 07:07:02;;;;;;;4.05;2.20;;;;;;;25.33;42.71;99685.97;1814886;79;21050;-46
2022/07/30 07:09:31;;;;;;;4.08;2.33;;;;;;;25.38;43.08;99683.39;1813843;79;21126;-46
2022/07/30 07:12:10;;;;;;;6.75;2.50;;;;;;;25.47;42.45;99683.45;1810179;79;20954;-46
2022/07/30 07:14:40;;;;;;;5.17;2.33;;;;;;;25.57;42.56;99680.15;1777194;79;21173;-46
2022/07/30 07:17:08;;;;;;;4.55;2.12;;;;;;;25.68;41.83;99678.37;1814545;79;21066;-46
2022/07/30 07:19:54;;;;;;;3.55;2.17;;;;;;;25.77;41.49;99668.70;1814474;79;21188;-46
2022/07/30 07:22:23;;;;;;;4.15;2.30;;;;;;;25.86;41.64;99677.06;1814583;79;21033;-46
2022/07/30 07:24:51;;;;;;;4.17;2.10;;;;;;;25.96;40.70;99674.50;1814939;78;21476;-47
2022/07/30 07:27:19;;;;;;;6.95;2.27;;;;;;;26.06;40.82;99674.70;1831867;78;21028;-46
2022/07/30 07:29:49;;;;;;;3.15;1.92;;;;;;;26.13;40.68;99674.43;1832148;78;21077;-46
2022/07/30 07:32:15;;;;;;;3.05;2.10;;;;;;;26.21;39.63;99668.77;1832239;78;21046;-46
2022/07/30 07:34:42;;;;;;;4.15;1.92;;;;;;;26.31;39.31;99671.73;1832282;78;21238;-46
2022/07/30 07:37:10;;;;;;;2.45;1.95;;;;;;;26.41;38.37;99668.98;1831740;78;21443;-46
2022/07/30 07:39:37;;;;;;;2.60;1.95;;;;;;;26.51;38.19;99662.20;1831443;78;21564;-46
2022/07/30 07:42:07;;;;;;;2.85;2.00;;;;;;;26.63;38.36;99659.90;1831588;78;20998;-46
2022/07/30 07:44:34;;;;;;;3.50;2.00;;;;;;;26.75;37.63;99668.73;1831562;78;21077;-46
2022/07/30 07:47:04;;;;;;;3.55;1.80;;;;;;;26.81;37.29;99664.11;1831774;78;20919;-46
2022/07/30 07:49:33;;;;;;;;;;;;;;;26.90;37.84;99664.14;1834124;78;20930;-46
2022/07/30 07:52:02;;;;;;;5.65;2.20;;;;;;;26.98;36.80;99666.77;1831705;78;20158;-46
2022/07/30 07:54:30;;;;;;;3.83;2.37;;;;;;;27.01;36.71;99663.69;1831430;78;20934;-46
2022/07/30 07:56:56;;;;;;;3.17;1.80;;;;;;;27.13;36.16;99666.31;1831627;78;21021;-46
2022/07/30 07:59:27;;;;;;;2.30;1.70;;;;;;;27.23;36.38;99658.72;1831358;78;21164;-46
2022/07/30 08:01:54;;;;;;;6.45;2.02;;;;;;;27.36;36.08;99659.94;1831835;78;21825;-46
2022/07/30 08:04:26;;;;;;;6.03;1.82;;;;;;;27.44;36.04;99656.38;1827676;78;20997;-46
2022/07/30 08:06:54;;;;;;;4.00;1.90;;;;;;;27.54;36.56;99656.55;1824355;78;20953;-46
2022/07/30 08:09:39;;;;;;;4.00;2.08;;;;;;;27.63;35.65;99643.22;1831683;78;21046;-46
2022/07/30 08:12:08;;;;;;;3.22;1.82;;;;;;;27.70;36.02;99642.87;1825649;78;21247;-46
2022/07/30 08:14:42;;;;;;;3.70;2.20;;;;;;;27.76;35.79;99648.58;1770012;78;20974;-46
2022/07/30 08:17:21;;;;;;;3.75;2.30;;;;;;;27.86;36.27;99646.69;1725703;78;21079;-46
2022/07/30 08:20:09;;;;;;;3.62;2.15;;;;;;;28.00;35.08;99637.66;1829594;78;21495;-46
2022/07/30 08:22:38;;;;;;;4.65;2.10;;;;;;;28.12;34.81;99637.95;1801993;78;21826;-46
2022/07/30 08:25:08;;;;;;;3.20;1.98;;;;;;;28.23;34.78;99631.98;1831510;78;22039;-46
2022/07/30 08:27:37;;;;;;;2.35;1.90;;;;;;;28.37;34.60;99631.92;1831396;78;20949;-46
2022/07/30 08:30:06;;;;;;;4.42;2.30;;;;;;;28.47;34.55;99621.61;1831308;78;21516;-46
2022/07/30 08:32:33;;;;;;;4.85;1.90;;;;;;;28.65;35.10;99623.52;1831773;78;21000;-46
2022/07/30 08:35:04;;;;;;;2.87;2.05;;;;;;;28.85;34.75;99619.48;1826458;77;20953;-46
2022/07/30 08:37:31;;;;;;;4.53;2.08;;;;;;;29.06;34.45;99614.05;1823073;78;21048;-46
2022/07/30 08:39:58;;;;;;;5.35;1.90;;;;;;;29.25;33.40;99619.59;1822495;78;21075;-46
2022/07/30 08:42:26;;;;;;;2.95;1.90;;;;;;;29.33;32.86;99612.43;1822272;78;20964;-46
2022/07/30 08:44:56;;;;;;;3.40;1.95;;;;;;;29.40;32.85;99607.84;1822366;78;20928;-46
2022/07/30 08:47:33;;;;;;;3.12;1.85;;;;;;;29.48;33.52;99610.41;1822464;78;21067;-46
2022/07/30 08:50:13;;;;;;;2.90;1.90;;;;;;;29.64;33.88;99609.89;1821226;78;20944;-46
2022/07/30 08:52:47;;;;;;;3.58;1.90;;;;;;;29.85;32.85;99610.73;1806614;78;21039;-46
2022/07/30 08:55:16;;;;;;;2.72;1.80;;;;;;;30.03;32.16;99602.77;1822409;78;20953;-46
2022/07/30 08:57:45;;;;;;;4.55;2.30;;;;;;;30.13;32.34;99599.36;1822639;78;20905;-46
2022/07/30 09:00:15;;;;;;;4.45;2.08;;;;;;;30.24;31.68;99600.14;1822501;78;20980;-46
2022/07/30 09:02:42;;;;;;;6.47;2.60;;;;;;;30.27;31.23;99596.36;1823061;78;21157;-46
2022/07/30 09:05:10;;;;;;;3.30;1.90;;;;;;;30.27;32.08;99599.78;1822573;78;20870;-46
2022/07/30 09:07:38;;;;;;;4.25;2.37;;;;;;;30.25;30.66;99597.50;1822768;78;20925;-46
2022/07/30 09:10:08;;;;;;;3.52;2.12;;;;;;;30.09;30.73;99596.00;1823005;78;21067;-46
2022/07/30 09:12:39;;;;;;;2.70;1.90;;;;;;;29.95;31.28;99598.84;1793422;78;21566;-46
2022/07/30 09:15:14;;;;;;;1.98;1.77;;;;;;;29.86;31.83;99593.34;1822714;78;21895;-46
2022/07/30 09:17:59;;;;;;;3.27;1.87;;;;;;;29.84;31.53;99595.84;1822341;78;21490;-46
2022/07/30 09:20:33;;;;;;;2.67;2.05;;;;;;;29.75;31.30;99593.31;1822756;78;21003;-46
2022/07/30 09:23:03;;;;;;;3.77;1.82;;;;;;;29.59;32.09;99603.59;1822281;78;21590;-46
2022/07/30 09:25:50;;;;;;;4.33;2.08;;;;;;;29.50;32.62;99598.11;1816269;78;21084;-46
2022/07/30 09:28:36;;;;;;;2.92;1.90;;;;;;;29.48;32.17;99593.64;1816257;79;21275;-46
2022/07/30 09:31:23;;;;;;;3.27;2.05;;;;;;;29.42;32.41;99593.40;1816377;79;20933;-46
2022/07/30 09:34:31;;;;;;;3.55;1.92;;;;;;;29.33;32.69;99599.86;1816506;79;20984;-46
2022/07/30 09:37:01;;;;;;;3.20;1.70;;;;;;;29.26;32.54;99593.22;1815674;78;21392;-46
2022/07/30 09:39:38;;;;;;;4.85;2.00;;;;;;;29.21;33.16;99596.06;1812405;79;20941;-46
2022/07/30 09:42:24;;;;;;;5.60;1.82;;;;;;;29.22;32.70;99600.40;1816219;78;21090;-46
2022/07/30 09:45:09;;;;;;;3.60;1.90;;;;;;;29.25;32.95;99596.63;1816375;79;21059;-46
2022/07/30 09:47:41;;;;;;;3.72;2.05;;;;;;;29.32;32.78;99607.47;1815115;79;21023;-46
2022/07/30 09:50:12;;;;;;;4.37;1.80;;;;;;;29.39;32.49;99606.29;1816387;79;21321;-46
2022/07/30 09:52:42;;;;;;;2.60;2.00;;;;;;;29.49;32.36;99607.73;1816279;79;21633;-46
2022/07/30 09:55:11;;;;;;;4.45;2.08;;;;;;;29.58;31.91;99609.68;1816386;78;21170;-46
2022/07/30 09:57:56;;;;;;;3.02;2.22;;;;;;;29.64;32.01;99601.52;1784940;79;20937;-46
2022/07/30 10:00:26;;;;;;;4.30;2.02;;;;;;;29.76;32.69;99592.69;1816669;78;20981;-46
2022/07/30 10:02:56;;;;;;;3.45;1.75;;;;;;;29.96;31.24;99597.59;1801790;79;20981;-46
2022/07/30 10:05:53;;;;;;;5.65;2.12;;;;;;;30.06;31.61;99583.01;1816558;79;21099;-46
2022/07/30 10:08:37;;;;;;;6.78;2.47;;;;;;;30.16;31.77;99591.38;1816783;79;21198;-46
2022/07/30 10:11:05;;;;;;;4.40;2.05;;;;;;;30.29;31.41;99582.67;1816472;79;21040;-46
2022/07/30 10:13:32;;;;;;;5.55;2.08;;;;;;;30.40;30.97;99590.44;1816422;79;21003;-46
2022/07/30 10:16:00;;;;;;;3.62;2.08;;;;;;;30.52;30.47;99580.31;1816638;78;20993;-46
2022/07/30 10:18:27;;;;;;;3.17;2.05;;;;;;;30.65;30.53;99579.94;1816379;79;21517;-46
2022/07/30 10:21:13;;;;;;;4.00;2.20;;;;;;;30.78;30.54;99574.00;1816456;79;21131;-46
2022/07/30 10:23:58;;;;;;;5.83;2.08;;;;;;;30.91;30.48;99578.59;1816272;79;21036;-46
2022/07/30 10:26:46;;;;;;;2.62;1.90;;;;;;;31.04;30.75;99571.99;1822620;78;21356;-46
2022/07/30 10:29:16;;;;;;;3.40;2.10;;;;;;;31.34;31.55;99571.89;1811565;78;21604;-46
2022/07/30 10:31:46;;;;;;;3.17;1.92;;;;;;;31.68;30.50;99571.56;1831629;78;20931;-46
2022/07/30 10:34:17;;;;;;;3.35;2.15;;;;;;;32.02;30.03;99569.73;1831487;78;21494;-46
2022/07/30 10:36:55;;;;;;;2.83;1.80;;;;;;;32.33;28.98;99561.27;1831395;78;21471;-46
2022/07/30 10:39:26;;;;;;;4.62;1.98;;;;;;;32.61;28.75;99561.36;1831188;78;20889;-46
2022/07/30 10:42:15;;;;;;;3.00;1.92;;;;;;;32.86;28.04;99571.53;1831267;78;21546;-46
2022/07/30 10:45:04;;;;;;;4.65;1.82;;;;;;;32.91;26.82;99561.72;1831487;78;21466;-47
2022/07/30 10:47:31;;;;;;;4.85;1.90;;;;;;;32.93;28.07;99559.79;1831013;78;21126;-47
2022/07/30 10:50:13;;;;;;;4.30;1.70;;;;;;;33.05;27.95;99555.73;1831430;78;20913;-46
2022/07/30 10:52:50;;;;;;;3.65;2.20;;;;;;;33.02;28.39;99560.31;1831282;78;21031;-46
2022/07/30 10:55:20;;;;;;;4.97;2.00;;;;;;;33.02;28.12;99555.33;1831536;78;20995;-46
2022/07/30 10:58:10;;;;;;;7.28;2.15;;;;;;;33.11;28.15;99555.86;1831380;78;21516;-46
2022/07/30 11:00:54;;;;;;;3.25;2.00;;;;;;;33.09;27.55;99561.23;1831909;78;21042;-46
2022/07/30 11:03:26;;;;;;;3.42;2.00;;;;;;;33.09;28.67;99554.84;1831692;78;20960;-46
2022/07/30 11:06:20;;;;;;;4.75;2.10;;;;;;;33.29;29.16;99551.05;1831644;78;21506;-46
2022/07/30 11:08:49;;;;;;;3.40;2.20;;;;;;;33.58;26.93;99545.68;1831635;78;21501;-46
2022/07/30 11:11:29;;;;;;;3.85;1.80;;;;;;;33.64;27.94;99544.27;1831714;78;20984;-47
2022/07/30 11:14:01;;;;;;;3.27;2.00;;;;;;;33.73;28.09;99548.88;1817389;78;21144;-47
2022/07/30 11:16:41;;;;;;;3.15;2.00;;;;;;;33.76;27.69;99545.03;1831525;78;21542;-46
2022/07/30 11:19:16;;;;;;;4.03;1.92;;;;;;;33.82;27.38;99535.31;1831713;78;20940;-46
2022/07/30 11:21:46;;;;;;;3.72;1.85;;;;;;;34.00;27.66;99543.19;1831375;78;20975;-47
2022/07/30 11:24:46;;;;;;;2.92;2.00;;;;;;;34.18;26.56;99539.72;1831450;78;21851;-47
2022/07/30 11:27:45;;;;;;;2.65;1.85;;;;;;;34.21;26.15;99538.03;1796151;78;21140;-46
2022/07/30 11:30:31;;;;;;;5.90;2.30;;;;;;;33.99;26.04;99536.02;1834547;78;20948;-47
2022/07/30 11:33:12;;;;;;;3.02;1.87;;;;;;;33.63;26.60;99527.27;1834664;78;20965;-46
2022/07/30 11:35:41;;;;;;;2.80;2.00;;;;;;;33.44;27.63;99526.27;1834612;78;21066;-46
2022/07/30 11:38:18;;;;;;;2.60;1.90;;;;;;;33.54;27.74;99533.16;1835133;78;21067;-46
2022/07/30 11:40:53;;;;;;;2.83;2.00;;;;;;;33.84;27.54;99532.73;1834462;78;21219;-46
2022/07/30 11:43:31;;;;;;;2.30;1.82;;;;;;;34.33;26.52;99533.88;1834332;78;21517;-46
2022/07/30 11:46:21;;;;;;;3.95;2.00;;;;;;;34.85;26.21;99518.40;1834530;78;20992;-46
2022/07/30 11:49:06;;;;;;;2.75;1.90;;;;;;;35.38;25.44;99513.39;1835094;78;22091;-47
2022/07/30 11:51:46;;;;;;;3.40;1.75;;;;;;;35.63;25.16;99508.53;1833960;78;21020;-46
2022/07/30 11:54:13;;;;;;;3.20;1.87;;;;;;;35.66;24.60;99509.67;1834780;78;21231;-46
2022/07/30 11:56:51;;;;;;;2.45;1.75;;;;;;;35.50;25.08;99508.39;1834240;78;21453;-47
2022/07/30 11:59:19;;;;;;;3.83;1.98;;;;;;;35.54;25.63;99509.62;1834697;78;21443;-46